sensor_id;sensor_type;location;lat;lon;timestamp;temperature;humidity
39751;DHT22;37579;51.074;17.004;2023-03-05T00:01:22;23.40;53.60
39751;DHT22;37579;51.074;17.004;2023-03-05T00:03:49;23.30;53.60
39751;DHT22;37579;51.074;17.004;2023-03-05T00:06:18;23.30;53.50
39751;DHT22;37579;51.074;17.004;2023-03-05T00:08:43;23.30;53.60
39751;DHT22;37579;51.074;17.004;2023-03-05T00:11:11;23.30;53.60
39751;DHT22;37579;51.074;17.004;2023-03-05T00:13:38;23.20;53.70
39751;DHT22;37579;51.074;17.004;2023-03-05T00:16:10;23.20;53.80
39751;DHT22;37579;51.074;17.004;2023-03-05T00:18:37;23.20;53.90
39751;DHT22;37579;51.074;17.004;2023-03-05T00:21:03;23.20;53.80
39751;DHT22;37579;51.074;17.004;2023-03-05T00:23:29;23.20;53.70
39751;DHT22;37579;51.074;17.004;2023-03-05T00:25:55;23.10;53.80
39751;DHT22;37579;51.074;17.004;2023-03-05T00:28:21;23.10;53.80
39751;DHT22;37579;51.074;17.004;2023-03-05T00:30:47;23.10;53.90
39751;DHT22;37579;51.074;17.004;2023-03-05T00:33:13;23.10;53.90
39751;DHT22;37579;51.074;17.004;2023-03-05T00:35:44;23.10;53.90
39751;DHT22;37579;51.074;17.004;2023-03-05T00:38:11;23.10;53.90
39751;DHT22;37579;51.074;17.004;2023-03-05T00:40:39;23.10;53.90
39751;DHT22;37579;51.074;17.004;2023-03-05T00:43:05;23.10;53.80
39751;DHT22;37579;51.074;17.004;2023-03-05T00:45:32;23.20;53.80
39751;DHT22;37579;51.074;17.004;2023-03-05T00:47:58;23.10;53.80
39751;DHT22;37579;51.074;17.004;2023-03-05T00:50:24;23.10;53.80
39751;DHT22;37579;51.074;17.004;2023-03-05T00:52:51;23.10;53.80
39751;DHT22;37579;51.074;17.004;2023-03-05T00:55:17;23.10;53.80
39751;DHT22;37579;51.074;17.004;2023-03-05T00:57:43;23.10;53.80
39751;DHT22;37579;51.074;17.004;2023-03-05T01:00:10;23.10;54.00
39751;DHT22;37579;51.074;17.004;2023-03-05T01:02:36;23.10;53.80
39751;DHT22;37579;51.074;17.004;2023-03-05T01:05:02;23.10;53.80
39751;DHT22;37579;51.074;17.004;2023-03-05T01:07:28;23.10;53.70
39751;DHT22;37579;51.074;17.004;2023-03-05T01:09:54;23.10;53.80
39751;DHT22;37579;51.074;17.004;2023-03-05T01:12:20;23.10;53.80
39751;DHT22;37579;51.074;17.004;2023-03-05T01:14:46;23.10;53.70
39751;DHT22;37579;51.074;17.004;2023-03-05T01:17:12;23.10;53.70
39751;DHT22;37579;51.074;17.004;2023-03-05T01:19:38;23.10;53.70
39751;DHT22;37579;51.074;17.004;2023-03-05T01:22:03;23.10;53.60
39751;DHT22;37579;51.074;17.004;2023-03-05T01:24:30;23.10;53.60
39751;DHT22;37579;51.074;17.004;2023-03-05T01:26:57;23.10;53.60
39751;DHT22;37579;51.074;17.004;2023-03-05T01:29:23;23.10;53.60
39751;DHT22;37579;51.074;17.004;2023-03-05T01:31:49;23.10;53.50
39751;DHT22;37579;51.074;17.004;2023-03-05T01:34:15;23.10;53.50
39751;DHT22;37579;51.074;17.004;2023-03-05T01:36:42;23.10;53.50
39751;DHT22;37579;51.074;17.004;2023-03-05T01:39:08;23.10;53.50
39751;DHT22;37579;51.074;17.004;2023-03-05T01:41:34;23.10;53.40
39751;DHT22;37579;51.074;17.004;2023-03-05T01:44:00;23.10;53.50
39751;DHT22;37579;51.074;17.004;2023-03-05T01:52:02;23.20;53.50
39751;DHT22;37579;51.074;17.004;2023-03-05T01:54:38;23.10;53.40
39751;DHT22;37579;51.074;17.004;2023-03-05T01:57:12;23.10;53.40
39751;DHT22;37579;51.074;17.004;2023-03-05T01:59:40;23.10;53.40
39751;DHT22;37579;51.074;17.004;2023-03-05T02:02:07;23.10;53.40
39751;DHT22;37579;51.074;17.004;2023-03-05T02:04:40;23.10;53.40
39751;DHT22;37579;51.074;17.004;2023-03-05T02:07:08;23.10;53.40
39751;DHT22;37579;51.074;17.004;2023-03-05T02:09:38;23.10;53.40
39751;DHT22;37579;51.074;17.004;2023-03-05T02:12:04;23.10;53.40
39751;DHT22;37579;51.074;17.004;2023-03-05T02:14:31;23.10;53.40
39751;DHT22;37579;51.074;17.004;2023-03-05T02:16:57;23.10;53.40
39751;DHT22;37579;51.074;17.004;2023-03-05T02:19:23;23.10;53.40
39751;DHT22;37579;51.074;17.004;2023-03-05T02:21:49;23.10;53.40
39751;DHT22;37579;51.074;17.004;2023-03-05T02:24:34;23.10;53.50
39751;DHT22;37579;51.074;17.004;2023-03-05T02:27:00;23.10;53.40
39751;DHT22;37579;51.074;17.004;2023-03-05T02:29:29;23.10;53.30
39751;DHT22;37579;51.074;17.004;2023-03-05T02:31:56;23.10;53.40
39751;DHT22;37579;51.074;17.004;2023-03-05T02:34:22;23.10;53.30
39751;DHT22;37579;51.074;17.004;2023-03-05T02:36:49;23.10;53.40
39751;DHT22;37579;51.074;17.004;2023-03-05T02:39:20;23.10;53.20
39751;DHT22;37579;51.074;17.004;2023-03-05T02:41:46;23.10;53.30
39751;DHT22;37579;51.074;17.004;2023-03-05T02:44:12;23.10;53.30
39751;DHT22;37579;51.074;17.004;2023-03-05T02:46:38;23.00;53.20
39751;DHT22;37579;51.074;17.004;2023-03-05T02:49:04;23.00;53.20
39751;DHT22;37579;51.074;17.004;2023-03-05T02:51:29;23.00;53.10
39751;DHT22;37579;51.074;17.004;2023-03-05T02:53:56;23.10;53.20
39751;DHT22;37579;51.074;17.004;2023-03-05T02:56:25;23.10;53.10
39751;DHT22;37579;51.074;17.004;2023-03-05T02:58:52;23.10;53.10
39751;DHT22;37579;51.074;17.004;2023-03-05T03:01:18;23.10;53.10
39751;DHT22;37579;51.074;17.004;2023-03-05T03:03:44;23.00;53.00
39751;DHT22;37579;51.074;17.004;2023-03-05T03:06:09;23.10;53.00
39751;DHT22;37579;51.074;17.004;2023-03-05T03:08:35;23.10;53.00
39751;DHT22;37579;51.074;17.004;2023-03-05T03:11:08;23.00;53.00
39751;DHT22;37579;51.074;17.004;2023-03-05T03:13:35;23.00;53.00
39751;DHT22;37579;51.074;17.004;2023-03-05T03:16:11;23.00;53.00
39751;DHT22;37579;51.074;17.004;2023-03-05T03:18:37;23.10;53.00
39751;DHT22;37579;51.074;17.004;2023-03-05T03:21:04;23.00;52.90
39751;DHT22;37579;51.074;17.004;2023-03-05T03:23:30;23.00;52.90
39751;DHT22;37579;51.074;17.004;2023-03-05T03:25:56;23.00;52.90
39751;DHT22;37579;51.074;17.004;2023-03-05T03:28:22;23.00;52.90
39751;DHT22;37579;51.074;17.004;2023-03-05T03:30:48;23.00;52.90
39751;DHT22;37579;51.074;17.004;2023-03-05T03:33:14;23.00;52.90
39751;DHT22;37579;51.074;17.004;2023-03-05T03:35:40;23.00;52.90
39751;DHT22;37579;51.074;17.004;2023-03-05T03:38:05;23.00;52.80
39751;DHT22;37579;51.074;17.004;2023-03-05T03:40:31;23.00;52.80
39751;DHT22;37579;51.074;17.004;2023-03-05T03:42:57;23.00;52.80
39751;DHT22;37579;51.074;17.004;2023-03-05T03:45:23;23.00;52.80
39751;DHT22;37579;51.074;17.004;2023-03-05T03:47:50;23.00;52.90
39751;DHT22;37579;51.074;17.004;2023-03-05T03:50:16;23.00;52.80
39751;DHT22;37579;51.074;17.004;2023-03-05T03:52:42;23.00;52.90
39751;DHT22;37579;51.074;17.004;2023-03-05T03:55:09;23.00;52.90
39751;DHT22;37579;51.074;17.004;2023-03-05T03:57:36;23.00;52.80
39751;DHT22;37579;51.074;17.004;2023-03-05T04:00:03;23.00;52.80
39751;DHT22;37579;51.074;17.004;2023-03-05T04:02:37;23.00;52.90
39751;DHT22;37579;51.074;17.004;2023-03-05T04:05:03;23.00;52.80
39751;DHT22;37579;51.074;17.004;2023-03-05T04:07:29;23.00;52.80
39751;DHT22;37579;51.074;17.004;2023-03-05T04:09:55;23.00;52.80
39751;DHT22;37579;51.074;17.004;2023-03-05T04:12:21;23.00;52.80
39751;DHT22;37579;51.074;17.004;2023-03-05T04:14:47;23.00;52.80
39751;DHT22;37579;51.074;17.004;2023-03-05T04:17:14;22.90;52.80
39751;DHT22;37579;51.074;17.004;2023-03-05T04:19:41;22.90;52.70
39751;DHT22;37579;51.074;17.004;2023-03-05T04:22:12;22.90;52.70
39751;DHT22;37579;51.074;17.004;2023-03-05T04:24:38;22.90;52.70
39751;DHT22;37579;51.074;17.004;2023-03-05T04:27:04;23.00;52.70
39751;DHT22;37579;51.074;17.004;2023-03-05T04:29:31;23.00;52.60
39751;DHT22;37579;51.074;17.004;2023-03-05T04:31:57;23.00;52.60
39751;DHT22;37579;51.074;17.004;2023-03-05T04:34:22;23.00;52.50
39751;DHT22;37579;51.074;17.004;2023-03-05T04:36:48;23.00;52.40
39751;DHT22;37579;51.074;17.004;2023-03-05T04:39:14;23.00;52.40
39751;DHT22;37579;51.074;17.004;2023-03-05T04:41:40;23.10;52.30
39751;DHT22;37579;51.074;17.004;2023-03-05T04:44:06;23.10;52.30
39751;DHT22;37579;51.074;17.004;2023-03-05T04:46:32;23.10;52.30
39751;DHT22;37579;51.074;17.004;2023-03-05T04:48:58;23.10;52.20
39751;DHT22;37579;51.074;17.004;2023-03-05T04:51:24;23.10;52.20
39751;DHT22;37579;51.074;17.004;2023-03-05T04:53:50;23.10;52.10
39751;DHT22;37579;51.074;17.004;2023-03-05T04:56:16;23.20;52.00
39751;DHT22;37579;51.074;17.004;2023-03-05T04:58:42;23.20;51.90
39751;DHT22;37579;51.074;17.004;2023-03-05T05:01:07;23.20;51.90
39751;DHT22;37579;51.074;17.004;2023-03-05T05:03:33;23.20;51.80
39751;DHT22;37579;51.074;17.004;2023-03-05T05:06:00;23.20;51.80
39751;DHT22;37579;51.074;17.004;2023-03-05T05:08:27;23.10;51.80
39751;DHT22;37579;51.074;17.004;2023-03-05T05:11:01;23.10;51.80
39751;DHT22;37579;51.074;17.004;2023-03-05T05:13:27;23.10;51.80
39751;DHT22;37579;51.074;17.004;2023-03-05T05:15:54;23.10;51.80
39751;DHT22;37579;51.074;17.004;2023-03-05T05:18:20;23.10;51.80
39751;DHT22;37579;51.074;17.004;2023-03-05T05:20:46;23.10;51.80
39751;DHT22;37579;51.074;17.004;2023-03-05T05:23:13;23.10;51.80
39751;DHT22;37579;51.074;17.004;2023-03-05T05:25:38;23.10;51.80
39751;DHT22;37579;51.074;17.004;2023-03-05T05:28:04;23.10;51.80
39751;DHT22;37579;51.074;17.004;2023-03-05T05:30:30;23.10;51.80
39751;DHT22;37579;51.074;17.004;2023-03-05T05:32:56;23.10;51.80
39751;DHT22;37579;51.074;17.004;2023-03-05T05:35:22;23.00;51.80
39751;DHT22;37579;51.074;17.004;2023-03-05T05:37:48;23.10;51.90
39751;DHT22;37579;51.074;17.004;2023-03-05T05:40:14;23.10;51.90
39751;DHT22;37579;51.074;17.004;2023-03-05T05:42:40;23.10;51.90
39751;DHT22;37579;51.074;17.004;2023-03-05T05:45:06;23.00;51.90
39751;DHT22;37579;51.074;17.004;2023-03-05T05:47:32;23.00;51.90
39751;DHT22;37579;51.074;17.004;2023-03-05T05:49:58;23.00;51.90
39751;DHT22;37579;51.074;17.004;2023-03-05T05:52:24;23.00;51.90
39751;DHT22;37579;51.074;17.004;2023-03-05T05:54:50;23.00;51.90
39751;DHT22;37579;51.074;17.004;2023-03-05T05:57:15;23.00;51.90
39751;DHT22;37579;51.074;17.004;2023-03-05T05:59:41;23.00;51.90
39751;DHT22;37579;51.074;17.004;2023-03-05T06:02:07;23.00;51.90
39751;DHT22;37579;51.074;17.004;2023-03-05T06:04:34;23.00;51.90
39751;DHT22;37579;51.074;17.004;2023-03-05T06:07:00;23.00;51.90
39751;DHT22;37579;51.074;17.004;2023-03-05T06:09:27;23.00;51.90
39751;DHT22;37579;51.074;17.004;2023-03-05T06:11:53;23.00;51.90
39751;DHT22;37579;51.074;17.004;2023-03-05T06:14:19;23.00;52.00
39751;DHT22;37579;51.074;17.004;2023-03-05T06:16:45;23.00;51.90
39751;DHT22;37579;51.074;17.004;2023-03-05T06:19:12;23.00;52.00
39751;DHT22;37579;51.074;17.004;2023-03-05T06:21:38;23.00;51.90
39751;DHT22;37579;51.074;17.004;2023-03-05T06:24:05;23.10;51.80
39751;DHT22;37579;51.074;17.004;2023-03-05T06:26:31;23.10;51.60
39751;DHT22;37579;51.074;17.004;2023-03-05T06:28:57;23.30;51.60
39751;DHT22;37579;51.074;17.004;2023-03-05T06:31:25;23.30;51.50
39751;DHT22;37579;51.074;17.004;2023-03-05T06:33:56;23.30;51.40
39751;DHT22;37579;51.074;17.004;2023-03-05T06:36:23;23.30;52.00
39751;DHT22;37579;51.074;17.004;2023-03-05T06:38:50;23.30;51.30
39751;DHT22;37579;51.074;17.004;2023-03-05T06:41:18;23.40;51.20
39751;DHT22;37579;51.074;17.004;2023-03-05T06:43:46;23.40;51.10
39751;DHT22;37579;51.074;17.004;2023-03-05T06:46:27;23.40;51.00
39751;DHT22;37579;51.074;17.004;2023-03-05T06:48:56;23.40;51.00
39751;DHT22;37579;51.074;17.004;2023-03-05T06:51:24;23.50;50.90
39751;DHT22;37579;51.074;17.004;2023-03-05T06:53:51;23.50;50.80
39751;DHT22;37579;51.074;17.004;2023-03-05T06:56:18;23.50;50.80
39751;DHT22;37579;51.074;17.004;2023-03-05T06:58:45;23.50;50.70
39751;DHT22;37579;51.074;17.004;2023-03-05T07:01:13;23.50;50.70
39751;DHT22;37579;51.074;17.004;2023-03-05T07:03:39;23.50;50.70
39751;DHT22;37579;51.074;17.004;2023-03-05T07:06:07;23.50;50.80
39751;DHT22;37579;51.074;17.004;2023-03-05T07:08:34;23.50;50.80
39751;DHT22;37579;51.074;17.004;2023-03-05T07:11:00;23.50;50.90
39751;DHT22;37579;51.074;17.004;2023-03-05T07:13:26;23.40;51.00
39751;DHT22;37579;51.074;17.004;2023-03-05T07:15:52;23.40;51.00
39751;DHT22;37579;51.074;17.004;2023-03-05T07:18:18;23.40;51.20
39751;DHT22;37579;51.074;17.004;2023-03-05T07:20:44;23.40;51.20
39751;DHT22;37579;51.074;17.004;2023-03-05T07:23:10;23.40;51.30
39751;DHT22;37579;51.074;17.004;2023-03-05T07:25:37;23.40;51.40
39751;DHT22;37579;51.074;17.004;2023-03-05T07:28:04;23.40;51.50
39751;DHT22;37579;51.074;17.004;2023-03-05T07:30:34;23.40;51.50
39751;DHT22;37579;51.074;17.004;2023-03-05T07:33:00;23.40;51.70
39751;DHT22;37579;51.074;17.004;2023-03-05T07:35:27;23.40;52.20
39751;DHT22;37579;51.074;17.004;2023-03-05T07:37:52;23.40;52.60
39751;DHT22;37579;51.074;17.004;2023-03-05T07:40:20;23.40;53.10
39751;DHT22;37579;51.074;17.004;2023-03-05T07:42:46;23.40;53.30
39751;DHT22;37579;51.074;17.004;2023-03-05T07:45:21;23.40;53.60
39751;DHT22;37579;51.074;17.004;2023-03-05T07:47:47;23.40;53.70
39751;DHT22;37579;51.074;17.004;2023-03-05T07:50:13;23.40;53.90
39751;DHT22;37579;51.074;17.004;2023-03-05T07:52:39;23.40;53.90
39751;DHT22;37579;51.074;17.004;2023-03-05T07:55:05;23.40;54.00
39751;DHT22;37579;51.074;17.004;2023-03-05T07:57:31;23.40;54.10
39751;DHT22;37579;51.074;17.004;2023-03-05T07:59:57;23.40;54.00
39751;DHT22;37579;51.074;17.004;2023-03-05T08:02:22;23.40;54.00
39751;DHT22;37579;51.074;17.004;2023-03-05T08:04:48;23.40;54.20
39751;DHT22;37579;51.074;17.004;2023-03-05T08:07:15;23.40;54.20
39751;DHT22;37579;51.074;17.004;2023-03-05T08:09:41;23.40;54.10
39751;DHT22;37579;51.074;17.004;2023-03-05T08:12:07;23.40;54.00
39751;DHT22;37579;51.074;17.004;2023-03-05T08:14:35;23.50;53.90
39751;DHT22;37579;51.074;17.004;2023-03-05T08:17:01;23.60;53.70
39751;DHT22;37579;51.074;17.004;2023-03-05T08:19:27;23.60;53.60
39751;DHT22;37579;51.074;17.004;2023-03-05T08:21:53;23.60;53.60
39751;DHT22;37579;51.074;17.004;2023-03-05T08:24:19;23.60;53.30
39751;DHT22;37579;51.074;17.004;2023-03-05T08:26:45;23.70;53.30
39751;DHT22;37579;51.074;17.004;2023-03-05T08:29:11;23.70;53.40
39751;DHT22;37579;51.074;17.004;2023-03-05T08:31:37;23.70;52.50
39751;DHT22;37579;51.074;17.004;2023-03-05T08:34:03;23.80;49.90
39751;DHT22;37579;51.074;17.004;2023-03-05T08:36:30;23.80;51.60
39751;DHT22;37579;51.074;17.004;2023-03-05T08:38:56;23.90;51.40
39751;DHT22;37579;51.074;17.004;2023-03-05T08:41:23;23.90;51.20
39751;DHT22;37579;51.074;17.004;2023-03-05T08:43:49;24.00;51.50
39751;DHT22;37579;51.074;17.004;2023-03-05T08:46:16;24.10;51.30
39751;DHT22;37579;51.074;17.004;2023-03-05T08:48:42;24.10;51.30
39751;DHT22;37579;51.074;17.004;2023-03-05T08:51:14;24.20;51.30
39751;DHT22;37579;51.074;17.004;2023-03-05T08:53:42;24.20;51.30
39751;DHT22;37579;51.074;17.004;2023-03-05T08:56:08;24.30;51.30
39751;DHT22;37579;51.074;17.004;2023-03-05T08:58:34;24.30;51.30
39751;DHT22;37579;51.074;17.004;2023-03-05T09:00:59;24.30;51.50
39751;DHT22;37579;51.074;17.004;2023-03-05T09:03:26;24.40;51.60
39751;DHT22;37579;51.074;17.004;2023-03-05T09:05:51;24.40;51.50
39751;DHT22;37579;51.074;17.004;2023-03-05T09:08:18;24.40;51.40
39751;DHT22;37579;51.074;17.004;2023-03-05T09:10:45;24.40;51.40
39751;DHT22;37579;51.074;17.004;2023-03-05T09:13:11;24.40;51.60
39751;DHT22;37579;51.074;17.004;2023-03-05T09:15:37;24.40;51.40
39751;DHT22;37579;51.074;17.004;2023-03-05T09:18:03;24.40;51.60
39751;DHT22;37579;51.074;17.004;2023-03-05T09:20:29;24.40;51.70
39751;DHT22;37579;51.074;17.004;2023-03-05T09:22:55;24.30;51.90
39751;DHT22;37579;51.074;17.004;2023-03-05T09:25:21;24.30;52.10
39751;DHT22;37579;51.074;17.004;2023-03-05T09:27:47;24.20;52.20
39751;DHT22;37579;51.074;17.004;2023-03-05T09:30:13;24.20;52.20
39751;DHT22;37579;51.074;17.004;2023-03-05T09:32:39;24.30;52.10
39751;DHT22;37579;51.074;17.004;2023-03-05T09:35:06;24.30;52.10
39751;DHT22;37579;51.074;17.004;2023-03-05T09:37:32;24.40;52.20
39751;DHT22;37579;51.074;17.004;2023-03-05T09:39:58;24.40;52.20
39751;DHT22;37579;51.074;17.004;2023-03-05T09:48:05;24.40;52.30
39751;DHT22;37579;51.074;17.004;2023-03-05T09:50:58;24.40;52.30
39751;DHT22;37579;51.074;17.004;2023-03-05T09:56:17;24.40;52.00
39751;DHT22;37579;51.074;17.004;2023-03-05T09:58:48;24.40;51.80
39751;DHT22;37579;51.074;17.004;2023-03-05T10:01:28;24.30;51.70
39751;DHT22;37579;51.074;17.004;2023-03-05T10:06:44;24.20;51.60
39751;DHT22;37579;51.074;17.004;2023-03-05T10:11:56;24.20;51.90
39751;DHT22;37579;51.074;17.004;2023-03-05T10:14:27;24.20;52.40
39751;DHT22;37579;51.074;17.004;2023-03-05T10:19:44;24.20;53.40
39751;DHT22;37579;51.074;17.004;2023-03-05T10:22:20;24.20;53.50
39751;DHT22;37579;51.074;17.004;2023-03-05T10:44:07;24.40;53.60
39751;DHT22;37579;51.074;17.004;2023-03-05T10:46:36;24.40;53.90
39751;DHT22;37579;51.074;17.004;2023-03-05T10:49:44;24.40;53.90
39751;DHT22;37579;51.074;17.004;2023-03-05T10:52:18;24.40;54.20
39751;DHT22;37579;51.074;17.004;2023-03-05T10:54:49;24.30;54.50
39751;DHT22;37579;51.074;17.004;2023-03-05T10:57:21;24.20;55.00
39751;DHT22;37579;51.074;17.004;2023-03-05T10:59:53;24.20;54.90
39751;DHT22;37579;51.074;17.004;2023-03-05T11:02:22;24.20;55.10
39751;DHT22;37579;51.074;17.004;2023-03-05T11:04:49;24.20;55.10
39751;DHT22;37579;51.074;17.004;2023-03-05T11:12:35;24.20;55.20
39751;DHT22;37579;51.074;17.004;2023-03-05T11:17:44;24.10;55.00
39751;DHT22;37579;51.074;17.004;2023-03-05T11:23:08;24.00;54.90
39751;DHT22;37579;51.074;17.004;2023-03-05T11:25:58;23.90;54.70
39751;DHT22;37579;51.074;17.004;2023-03-05T11:28:40;23.90;54.60
39751;DHT22;37579;51.074;17.004;2023-03-05T11:33:33;23.80;54.40
39751;DHT22;37579;51.074;17.004;2023-03-05T11:38:53;23.70;54.50
39751;DHT22;37579;51.074;17.004;2023-03-05T11:41:33;23.70;54.50
39751;DHT22;37579;51.074;17.004;2023-03-05T11:44:04;23.70;54.50
39751;DHT22;37579;51.074;17.004;2023-03-05T11:46:46;23.70;54.70
39751;DHT22;37579;51.074;17.004;2023-03-05T11:49:22;23.70;54.60
39751;DHT22;37579;51.074;17.004;2023-03-05T11:51:58;23.70;54.60
39751;DHT22;37579;51.074;17.004;2023-03-05T11:54:55;23.70;54.50
39751;DHT22;37579;51.074;17.004;2023-03-05T11:57:23;23.80;54.50
39751;DHT22;37579;51.074;17.004;2023-03-05T11:59:52;23.70;54.50
39751;DHT22;37579;51.074;17.004;2023-03-05T12:02:22;23.70;54.40
39751;DHT22;37579;51.074;17.004;2023-03-05T12:04:50;23.80;54.30
39751;DHT22;37579;51.074;17.004;2023-03-05T12:07:25;23.80;54.10
39751;DHT22;37579;51.074;17.004;2023-03-05T12:09:53;23.80;54.10
39751;DHT22;37579;51.074;17.004;2023-03-05T12:15:24;23.80;53.90
39751;DHT22;37579;51.074;17.004;2023-03-05T12:21:55;23.90;53.80
39751;DHT22;37579;51.074;17.004;2023-03-05T12:24:03;23.90;53.90
39751;DHT22;37579;51.074;17.004;2023-03-05T12:29:39;23.90;54.70
39751;DHT22;37579;51.074;17.004;2023-03-05T12:40:00;23.90;56.30
39751;DHT22;37579;51.074;17.004;2023-03-05T12:47:45;23.80;56.90
39751;DHT22;37579;51.074;17.004;2023-03-05T12:52:56;23.80;57.60
39751;DHT22;37579;51.074;17.004;2023-03-05T12:58:35;23.70;57.80
39751;DHT22;37579;51.074;17.004;2023-03-05T13:03:47;23.70;57.80
39751;DHT22;37579;51.074;17.004;2023-03-05T13:06:29;23.70;57.80
39751;DHT22;37579;51.074;17.004;2023-03-05T13:09:02;23.70;57.80
39751;DHT22;37579;51.074;17.004;2023-03-05T13:11:31;23.70;58.00
39751;DHT22;37579;51.074;17.004;2023-03-05T13:13:59;23.80;58.60
39751;DHT22;37579;51.074;17.004;2023-03-05T13:16:36;23.80;58.20
39751;DHT22;37579;51.074;17.004;2023-03-05T13:19:02;23.80;58.00
39751;DHT22;37579;51.074;17.004;2023-03-05T13:21:31;23.80;57.90
39751;DHT22;37579;51.074;17.004;2023-03-05T13:24:01;23.90;57.80
39751;DHT22;37579;51.074;17.004;2023-03-05T13:26:29;23.90;57.70
39751;DHT22;37579;51.074;17.004;2023-03-05T13:31:39;23.90;57.80
39751;DHT22;37579;51.074;17.004;2023-03-05T13:34:15;23.90;57.90
39751;DHT22;37579;51.074;17.004;2023-03-05T13:39:33;23.90;57.80
39751;DHT22;37579;51.074;17.004;2023-03-05T13:42:15;23.90;57.80
39751;DHT22;37579;51.074;17.004;2023-03-05T13:44:41;23.90;57.80
39751;DHT22;37579;51.074;17.004;2023-03-05T13:47:14;23.80;57.80
39751;DHT22;37579;51.074;17.004;2023-03-05T13:49:41;23.80;57.70
39751;DHT22;37579;51.074;17.004;2023-03-05T13:52:08;23.80;57.80
39751;DHT22;37579;51.074;17.004;2023-03-05T13:54:35;23.80;57.90
39751;DHT22;37579;51.074;17.004;2023-03-05T13:57:04;23.80;57.70
39751;DHT22;37579;51.074;17.004;2023-03-05T13:59:35;23.80;57.50
39751;DHT22;37579;51.074;17.004;2023-03-05T14:02:15;23.80;57.60
39751;DHT22;37579;51.074;17.004;2023-03-05T14:04:43;23.70;57.90
39751;DHT22;37579;51.074;17.004;2023-03-05T14:07:32;23.70;57.90
39751;DHT22;37579;51.074;17.004;2023-03-05T14:09:59;23.70;57.50
39751;DHT22;37579;51.074;17.004;2023-03-05T14:12:44;23.60;57.70
39751;DHT22;37579;51.074;17.004;2023-03-05T14:15:22;23.70;57.90
39751;DHT22;37579;51.074;17.004;2023-03-05T14:17:49;23.70;57.80
39751;DHT22;37579;51.074;17.004;2023-03-05T14:20:23;23.70;57.60
39751;DHT22;37579;51.074;17.004;2023-03-05T14:22:52;23.70;57.60
39751;DHT22;37579;51.074;17.004;2023-03-05T14:25:34;23.70;57.70
39751;DHT22;37579;51.074;17.004;2023-03-05T14:30:48;23.70;57.70
39751;DHT22;37579;51.074;17.004;2023-03-05T14:33:34;23.80;57.60
39751;DHT22;37579;51.074;17.004;2023-03-05T14:36:00;23.80;57.40
39751;DHT22;37579;51.074;17.004;2023-03-05T14:38:30;23.80;57.40
39751;DHT22;37579;51.074;17.004;2023-03-05T14:41:36;23.80;57.10
39751;DHT22;37579;51.074;17.004;2023-03-05T14:44:14;23.80;57.10
39751;DHT22;37579;51.074;17.004;2023-03-05T14:46:41;23.80;57.10
39751;DHT22;37579;51.074;17.004;2023-03-05T14:49:07;23.80;57.20
39751;DHT22;37579;51.074;17.004;2023-03-05T14:51:37;23.80;57.10
39751;DHT22;37579;51.074;17.004;2023-03-05T14:54:04;23.80;57.40
39751;DHT22;37579;51.074;17.004;2023-03-05T14:56:30;23.80;57.00
39751;DHT22;37579;51.074;17.004;2023-03-05T14:58:56;23.80;56.90
39751;DHT22;37579;51.074;17.004;2023-03-05T15:01:22;23.80;56.80
39751;DHT22;37579;51.074;17.004;2023-03-05T15:03:49;23.80;56.70
39751;DHT22;37579;51.074;17.004;2023-03-05T15:06:44;23.80;56.70
39751;DHT22;37579;51.074;17.004;2023-03-05T15:09:15;23.80;56.70
39751;DHT22;37579;51.074;17.004;2023-03-05T15:11:45;23.70;56.70
39751;DHT22;37579;51.074;17.004;2023-03-05T15:14:11;23.70;57.30
39751;DHT22;37579;51.074;17.004;2023-03-05T15:16:41;23.70;57.30
39751;DHT22;37579;51.074;17.004;2023-03-05T15:19:10;23.70;57.40
39751;DHT22;37579;51.074;17.004;2023-03-05T15:21:36;23.70;57.60
39751;DHT22;37579;51.074;17.004;2023-03-05T15:24:02;23.70;57.50
39751;DHT22;37579;51.074;17.004;2023-03-05T15:26:28;23.80;57.50
39751;DHT22;37579;51.074;17.004;2023-03-05T15:28:54;23.80;57.70
39751;DHT22;37579;51.074;17.004;2023-03-05T15:31:20;23.80;57.60
39751;DHT22;37579;51.074;17.004;2023-03-05T15:33:45;23.80;57.70
39751;DHT22;37579;51.074;17.004;2023-03-05T15:36:11;23.80;57.80
39751;DHT22;37579;51.074;17.004;2023-03-05T15:38:38;23.80;57.60
39751;DHT22;37579;51.074;17.004;2023-03-05T15:41:06;23.90;57.60
39751;DHT22;37579;51.074;17.004;2023-03-05T15:43:32;23.90;57.60
39751;DHT22;37579;51.074;17.004;2023-03-05T15:45:57;24.00;57.40
39751;DHT22;37579;51.074;17.004;2023-03-05T15:48:23;24.10;57.60
39751;DHT22;37579;51.074;17.004;2023-03-05T15:50:49;24.20;57.30
39751;DHT22;37579;51.074;17.004;2023-03-05T15:53:15;24.20;57.10
39751;DHT22;37579;51.074;17.004;2023-03-05T15:55:43;24.30;56.80
39751;DHT22;37579;51.074;17.004;2023-03-05T15:58:13;24.40;56.80
39751;DHT22;37579;51.074;17.004;2023-03-05T16:00:40;24.40;56.50
39751;DHT22;37579;51.074;17.004;2023-03-05T16:03:06;24.50;56.50
39751;DHT22;37579;51.074;17.004;2023-03-05T16:05:34;24.60;56.50
39751;DHT22;37579;51.074;17.004;2023-03-05T16:08:00;24.60;56.20
39751;DHT22;37579;51.074;17.004;2023-03-05T16:10:27;24.70;56.10
39751;DHT22;37579;51.074;17.004;2023-03-05T16:13:01;24.80;55.90
39751;DHT22;37579;51.074;17.004;2023-03-05T16:15:29;24.80;55.60
39751;DHT22;37579;51.074;17.004;2023-03-05T16:17:58;24.80;55.60
39751;DHT22;37579;51.074;17.004;2023-03-05T16:20:25;24.90;55.90
39751;DHT22;37579;51.074;17.004;2023-03-05T16:22:51;24.90;55.90
39751;DHT22;37579;51.074;17.004;2023-03-05T16:25:17;24.90;55.90
39751;DHT22;37579;51.074;17.004;2023-03-05T16:27:43;24.90;56.00
39751;DHT22;37579;51.074;17.004;2023-03-05T16:30:10;24.90;55.90
39751;DHT22;37579;51.074;17.004;2023-03-05T16:32:38;24.80;55.80
39751;DHT22;37579;51.074;17.004;2023-03-05T16:35:04;24.90;55.60
39751;DHT22;37579;51.074;17.004;2023-03-05T16:37:30;24.80;55.60
39751;DHT22;37579;51.074;17.004;2023-03-05T16:39:59;24.80;55.50
39751;DHT22;37579;51.074;17.004;2023-03-05T16:42:25;24.80;55.50
39751;DHT22;37579;51.074;17.004;2023-03-05T16:44:51;24.80;55.50
39751;DHT22;37579;51.074;17.004;2023-03-05T16:47:17;24.80;55.50
39751;DHT22;37579;51.074;17.004;2023-03-05T16:49:42;24.80;55.50
39751;DHT22;37579;51.074;17.004;2023-03-05T16:52:08;24.70;55.50
39751;DHT22;37579;51.074;17.004;2023-03-05T16:54:36;24.70;55.50
39751;DHT22;37579;51.074;17.004;2023-03-05T16:57:06;24.60;55.50
39751;DHT22;37579;51.074;17.004;2023-03-05T16:59:34;24.60;55.70